sensor_id;sensor_type;location;lat;lon;timestamp;pressure;altitude;pressure_sealevel;temperature;humidity
64080;BME280;51042;49.696;10.808;2023-08-24T00:01:30;98704.72;;;18.47;100.00
64080;BME280;51042;49.696;10.808;2023-08-24T00:03:55;98698.38;;;18.46;100.00
64080;BME280;51042;49.696;10.808;2023-08-24T00:06:21;98692.22;;;18.42;100.00
64080;BME280;51042;49.696;10.808;2023-08-24T00:08:46;98686.41;;;18.40;100.00
64080;BME280;51042;49.696;10.808;2023-08-24T00:11:12;98689.66;;;18.39;100.00
64080;BME280;51042;49.696;10.808;2023-08-24T00:13:40;98684.31;;;18.35;100.00
64080;BME280;51042;49.696;10.808;2023-08-24T00:16:05;98676.16;;;18.31;100.00
64080;BME280;51042;49.696;10.808;2023-08-24T00:18:30;98681.41;;;18.29;100.00
64080;BME280;51042;49.696;10.808;2023-08-24T00:20:55;98676.91;;;18.32;100.00
64080;BME280;51042;49.696;10.808;2023-08-24T00:23:21;98681.91;;;18.28;100.00
64080;BME280;51042;49.696;10.808;2023-08-24T00:25:46;98679.31;;;18.24;100.00
64080;BME280;51042;49.696;10.808;2023-08-24T00:28:11;98677.97;;;18.20;100.00
64080;BME280;51042;49.696;10.808;2023-08-24T00:30:36;98672.13;;;18.18;100.00
64080;BME280;51042;49.696;10.808;2023-08-24T00:33:02;98667.00;;;18.11;100.00
64080;BME280;51042;49.696;10.808;2023-08-24T00:35:27;98667.84;;;18.02;100.00
64080;BME280;51042;49.696;10.808;2023-08-24T00:37:52;98666.13;;;18.05;100.00
64080;BME280;51042;49.696;10.808;2023-08-24T00:40:17;98660.56;;;18.05;100.00
64080;BME280;51042;49.696;10.808;2023-08-24T00:42:43;98659.81;;;18.04;100.00
64080;BME280;51042;49.696;10.808;2023-08-24T00:45:09;98663.44;;;17.95;100.00
64080;BME280;51042;49.696;10.808;2023-08-24T00:47:35;98668.69;;;17.93;100.00
64080;BME280;51042;49.696;10.808;2023-08-24T00:50:01;98677.78;;;17.94;100.00
64080;BME280;51042;49.696;10.808;2023-08-24T00:52:26;98661.31;;;17.90;100.00
64080;BME280;51042;49.696;10.808;2023-08-24T00:54:53;98662.56;;;17.89;100.00
64080;BME280;51042;49.696;10.808;2023-08-24T00:57:19;98655.47;;;17.88;100.00
64080;BME280;51042;49.696;10.808;2023-08-24T00:59:44;98662.09;;;17.91;100.00
64080;BME280;51042;49.696;10.808;2023-08-24T01:02:09;98662.00;;;17.85;100.00
64080;BME280;51042;49.696;10.808;2023-08-24T01:04:35;98661.44;;;17.81;100.00
64080;BME280;51042;49.696;10.808;2023-08-24T01:07:01;98654.81;;;17.79;100.00
64080;BME280;51042;49.696;10.808;2023-08-24T01:09:26;98648.69;;;17.75;100.00
64080;BME280;51042;49.696;10.808;2023-08-24T01:14:20;98641.53;;;17.59;100.00
64080;BME280;51042;49.696;10.808;2023-08-24T01:16:48;98648.53;;;17.54;100.00
64080;BME280;51042;49.696;10.808;2023-08-24T01:21:49;98657.63;;;17.55;100.00
64080;BME280;51042;49.696;10.808;2023-08-24T01:24:18;98659.81;;;17.51;100.00
64080;BME280;51042;49.696;10.808;2023-08-24T01:26:47;98649.75;;;17.53;100.00
64080;BME280;51042;49.696;10.808;2023-08-24T01:29:13;98651.88;;;17.59;100.00
64080;BME280;51042;49.696;10.808;2023-08-24T01:31:40;98658.69;;;17.58;100.00
64080;BME280;51042;49.696;10.808;2023-08-24T01:34:05;98660.59;;;17.51;100.00
64080;BME280;51042;49.696;10.808;2023-08-24T01:36:30;98662.97;;;17.44;100.00
64080;BME280;51042;49.696;10.808;2023-08-24T01:39:06;98666.56;;;17.35;100.00
64080;BME280;51042;49.696;10.808;2023-08-24T01:41:34;98671.06;;;17.33;100.00
64080;BME280;51042;49.696;10.808;2023-08-24T01:44:02;98670.66;;;17.25;100.00
64080;BME280;51042;49.696;10.808;2023-08-24T01:46:28;98664.22;;;17.19;100.00
64080;BME280;51042;49.696;10.808;2023-08-24T01:48:54;98664.41;;;17.16;100.00
64080;BME280;51042;49.696;10.808;2023-08-24T01:51:19;98659.31;;;17.14;100.00
64080;BME280;51042;49.696;10.808;2023-08-24T01:53:44;98654.91;;;17.07;100.00
64080;BME280;51042;49.696;10.808;2023-08-24T01:56:10;98651.56;;;17.03;100.00
64080;BME280;51042;49.696;10.808;2023-08-24T01:58:36;98644.47;;;17.02;100.00
64080;BME280;51042;49.696;10.808;2023-08-24T02:01:01;98646.94;;;17.00;100.00
64080;BME280;51042;49.696;10.808;2023-08-24T02:03:26;98646.16;;;17.00;100.00
64080;BME280;51042;49.696;10.808;2023-08-24T02:05:51;98640.03;;;16.96;100.00
64080;BME280;51042;49.696;10.808;2023-08-24T02:08:16;98641.47;;;16.91;100.00
64080;BME280;51042;49.696;10.808;2023-08-24T02:10:42;98635.16;;;16.91;100.00
64080;BME280;51042;49.696;10.808;2023-08-24T02:13:07;98645.16;;;16.88;100.00
64080;BME280;51042;49.696;10.808;2023-08-24T02:15:32;98641.63;;;16.88;100.00
64080;BME280;51042;49.696;10.808;2023-08-24T02:17:57;98643.34;;;16.85;100.00
64080;BME280;51042;49.696;10.808;2023-08-24T02:20:22;98646.59;;;16.84;100.00
64080;BME280;51042;49.696;10.808;2023-08-24T02:22:47;98649.03;;;16.82;100.00
64080;BME280;51042;49.696;10.808;2023-08-24T02:25:13;98648.59;;;16.83;100.00
64080;BME280;51042;49.696;10.808;2023-08-24T02:27:38;98645.50;;;16.81;100.00
64080;BME280;51042;49.696;10.808;2023-08-24T02:30:03;98646.28;;;16.82;100.00
64080;BME280;51042;49.696;10.808;2023-08-24T02:32:29;98645.69;;;16.78;100.00
64080;BME280;51042;49.696;10.808;2023-08-24T02:34:54;98651.13;;;16.72;100.00
64080;BME280;51042;49.696;10.808;2023-08-24T02:37:19;98652.34;;;16.71;100.00
64080;BME280;51042;49.696;10.808;2023-08-24T02:39:44;98659.88;;;16.70;100.00
64080;BME280;51042;49.696;10.808;2023-08-24T02:42:09;98656.34;;;16.70;100.00
64080;BME280;51042;49.696;10.808;2023-08-24T02:44:35;98663.50;;;16.62;100.00
64080;BME280;51042;49.696;10.808;2023-08-24T02:47:00;98663.78;;;16.55;100.00
64080;BME280;51042;49.696;10.808;2023-08-24T02:49:25;98667.34;;;16.55;100.00
64080;BME280;51042;49.696;10.808;2023-08-24T02:51:50;98674.69;;;16.58;100.00
64080;BME280;51042;49.696;10.808;2023-08-24T02:54:15;98678.69;;;16.57;100.00
64080;BME280;51042;49.696;10.808;2023-08-24T02:56:40;98686.25;;;16.57;100.00
64080;BME280;51042;49.696;10.808;2023-08-24T02:59:06;98676.88;;;16.54;100.00
64080;BME280;51042;49.696;10.808;2023-08-24T03:01:31;98684.59;;;16.50;100.00
64080;BME280;51042;49.696;10.808;2023-08-24T03:03:56;98675.97;;;16.48;100.00
64080;BME280;51042;49.696;10.808;2023-08-24T03:06:21;98679.84;;;16.42;100.00
64080;BME280;51042;49.696;10.808;2023-08-24T03:08:49;98673.72;;;16.38;100.00
64080;BME280;51042;49.696;10.808;2023-08-24T03:11:14;98667.88;;;16.36;100.00
64080;BME280;51042;49.696;10.808;2023-08-24T03:13:39;98672.47;;;16.39;100.00
64080;BME280;51042;49.696;10.808;2023-08-24T03:16:05;98669.28;;;16.31;100.00
64080;BME280;51042;49.696;10.808;2023-08-24T03:18:30;98669.16;;;16.25;100.00
64080;BME280;51042;49.696;10.808;2023-08-24T03:20:55;98678.84;;;16.21;100.00
64080;BME280;51042;49.696;10.808;2023-08-24T03:23:20;98674.84;;;16.22;100.00
64080;BME280;51042;49.696;10.808;2023-08-24T03:25:45;98672.06;;;16.22;100.00
64080;BME280;51042;49.696;10.808;2023-08-24T03:28:11;98670.38;;;16.15;100.00
64080;BME280;51042;49.696;10.808;2023-08-24T03:30:37;98674.56;;;16.11;100.00
64080;BME280;51042;49.696;10.808;2023-08-24T03:33:02;98685.03;;;16.07;100.00
64080;BME280;51042;49.696;10.808;2023-08-24T03:35:29;98675.81;;;16.01;100.00
64080;BME280;51042;49.696;10.808;2023-08-24T03:37:55;98675.50;;;15.99;100.00
64080;BME280;51042;49.696;10.808;2023-08-24T03:40:20;98663.84;;;15.95;100.00
64080;BME280;51042;49.696;10.808;2023-08-24T03:42:45;98660.63;;;15.96;100.00
64080;BME280;51042;49.696;10.808;2023-08-24T03:45:10;98654.59;;;15.98;100.00
64080;BME280;51042;49.696;10.808;2023-08-24T03:47:35;98654.13;;;15.99;100.00
64080;BME280;51042;49.696;10.808;2023-08-24T03:50:00;98654.31;;;15.96;100.00
64080;BME280;51042;49.696;10.808;2023-08-24T03:52:26;98653.81;;;15.97;100.00
64080;BME280;51042;49.696;10.808;2023-08-24T03:54:51;98653.53;;;15.95;100.00
64080;BME280;51042;49.696;10.808;2023-08-24T03:57:16;98653.38;;;15.99;100.00
64080;BME280;51042;49.696;10.808;2023-08-24T03:59:41;98652.00;;;15.94;100.00
64080;BME280;51042;49.696;10.808;2023-08-24T04:02:07;98652.31;;;15.96;100.00
64080;BME280;51042;49.696;10.808;2023-08-24T04:04:32;98647.06;;;15.98;100.00
64080;BME280;51042;49.696;10.808;2023-08-24T04:06:57;98645.84;;;15.99;100.00
64080;BME280;51042;49.696;10.808;2023-08-24T04:09:23;98655.38;;;15.98;100.00
64080;BME280;51042;49.696;10.808;2023-08-24T04:11:48;98650.00;;;15.95;100.00
64080;BME280;51042;49.696;10.808;2023-08-24T04:14:13;98646.47;;;15.94;100.00
64080;BME280;51042;49.696;10.808;2023-08-24T04:16:39;98653.09;;;15.97;100.00
64080;BME280;51042;49.696;10.808;2023-08-24T04:19:04;98649.53;;;15.96;100.00
64080;BME280;51042;49.696;10.808;2023-08-24T04:21:29;98653.69;;;16.01;100.00
64080;BME280;51042;49.696;10.808;2023-08-24T04:23:54;98652.59;;;15.98;100.00
64080;BME280;51042;49.696;10.808;2023-08-24T04:26:19;98651.38;;;15.99;100.00
64080;BME280;51042;49.696;10.808;2023-08-24T04:28:44;98655.69;;;16.00;100.00
64080;BME280;51042;49.696;10.808;2023-08-24T04:31:09;98660.59;;;16.05;100.00
64080;BME280;51042;49.696;10.808;2023-08-24T04:33:35;98651.19;;;16.12;100.00
64080;BME280;51042;49.696;10.808;2023-08-24T04:36:01;98651.31;;;16.26;100.00
64080;BME280;51042;49.696;10.808;2023-08-24T04:38:26;98656.16;;;16.41;100.00
64080;BME280;51042;49.696;10.808;2023-08-24T04:40:53;98663.50;;;16.53;100.00
64080;BME280;51042;49.696;10.808;2023-08-24T04:43:19;98667.31;;;16.64;100.00
64080;BME280;51042;49.696;10.808;2023-08-24T04:45:51;98668.34;;;16.76;100.00
64080;BME280;51042;49.696;10.808;2023-08-24T04:48:20;98660.72;;;16.62;100.00
64080;BME280;51042;49.696;10.808;2023-08-24T04:50:46;98656.16;;;16.41;100.00
64080;BME280;51042;49.696;10.808;2023-08-24T04:53:13;98655.91;;;16.29;100.00
64080;BME280;51042;49.696;10.808;2023-08-24T04:55:39;98662.63;;;16.38;100.00
64080;BME280;51042;49.696;10.808;2023-08-24T04:58:04;98654.69;;;16.63;100.00
64080;BME280;51042;49.696;10.808;2023-08-24T05:00:29;98657.13;;;16.70;100.00
64080;BME280;51042;49.696;10.808;2023-08-24T05:02:57;98645.16;;;16.64;100.00
64080;BME280;51042;49.696;10.808;2023-08-24T05:05:23;98646.38;;;16.63;100.00
64080;BME280;51042;49.696;10.808;2023-08-24T05:07:48;98645.69;;;16.78;100.00
64080;BME280;51042;49.696;10.808;2023-08-24T05:10:13;98660.44;;;17.07;100.00
64080;BME280;51042;49.696;10.808;2023-08-24T05:12:38;98648.84;;;17.71;100.00
64080;BME280;51042;49.696;10.808;2023-08-24T05:15:04;98658.50;;;18.49;100.00
64080;BME280;51042;49.696;10.808;2023-08-24T05:17:29;98653.13;;;19.15;100.00
64080;BME280;51042;49.696;10.808;2023-08-24T05:19:54;98655.50;;;19.89;100.00
64080;BME280;51042;49.696;10.808;2023-08-24T05:22:19;98649.34;;;20.36;98.76
64080;BME280;51042;49.696;10.808;2023-08-24T05:24:45;98649.69;;;20.50;97.36
64080;BME280;51042;49.696;10.808;2023-08-24T05:27:10;98658.75;;;20.76;95.70
64080;BME280;51042;49.696;10.808;2023-08-24T05:29:35;98650.97;;;20.91;92.95
64080;BME280;51042;49.696;10.808;2023-08-24T05:32:00;98647.94;;;20.95;92.90
64080;BME280;51042;49.696;10.808;2023-08-24T05:34:25;98642.69;;;21.08;90.15
64080;BME280;51042;49.696;10.808;2023-08-24T05:36:50;98645.91;;;21.49;89.21
64080;BME280;51042;49.696;10.808;2023-08-24T05:39:16;98650.13;;;22.15;85.82
64080;BME280;51042;49.696;10.808;2023-08-24T05:41:41;98646.78;;;22.55;80.36
64080;BME280;51042;49.696;10.808;2023-08-24T05:44:06;98641.50;;;23.32;79.31
64080;BME280;51042;49.696;10.808;2023-08-24T05:46:31;98635.25;;;23.67;73.94
64080;BME280;51042;49.696;10.808;2023-08-24T05:48:57;98616.69;;;23.06;74.89
64080;BME280;51042;49.696;10.808;2023-08-24T05:51:23;98611.69;;;22.54;78.61
64080;BME280;51042;49.696;10.808;2023-08-24T05:53:48;98612.00;;;22.12;81.65
64080;BME280;51042;49.696;10.808;2023-08-24T05:56:14;98604.00;;;20.78;91.05
64080;BME280;51042;49.696;10.808;2023-08-24T05:58:39;98593.50;;;19.68;100.00
64080;BME280;51042;49.696;10.808;2023-08-24T06:01:04;98561.97;;;18.64;100.00
64080;BME280;51042;49.696;10.808;2023-08-24T06:03:29;98547.09;;;17.98;100.00
64080;BME280;51042;49.696;10.808;2023-08-24T06:06:00;98552.47;;;17.72;100.00
64080;BME280;51042;49.696;10.808;2023-08-24T06:08:26;98554.69;;;17.68;100.00
64080;BME280;51042;49.696;10.808;2023-08-24T06:10:51;98560.88;;;17.77;100.00
64080;BME280;51042;49.696;10.808;2023-08-24T06:13:16;98557.53;;;17.88;100.00
64080;BME280;51042;49.696;10.808;2023-08-24T06:15:41;98554.56;;;17.91;100.00
64080;BME280;51042;49.696;10.808;2023-08-24T06:18:07;98559.81;;;17.89;100.00
64080;BME280;51042;49.696;10.808;2023-08-24T06:20:32;98574.28;;;17.93;100.00
64080;BME280;51042;49.696;10.808;2023-08-24T06:22:57;98583.81;;;18.22;100.00
64080;BME280;51042;49.696;10.808;2023-08-24T06:25:22;98588.31;;;18.69;100.00
64080;BME280;51042;49.696;10.808;2023-08-24T06:27:48;98590.19;;;19.44;100.00
64080;BME280;51042;49.696;10.808;2023-08-24T06:30:13;98583.69;;;20.04;100.00
64080;BME280;51042;49.696;10.808;2023-08-24T06:32:38;98576.56;;;20.71;100.00
64080;BME280;51042;49.696;10.808;2023-08-24T06:35:03;98578.22;;;21.00;100.00
64080;BME280;51042;49.696;10.808;2023-08-24T06:37:29;98572.72;;;21.23;99.59
64080;BME280;51042;49.696;10.808;2023-08-24T06:39:54;98571.28;;;21.44;96.86
64080;BME280;51042;49.696;10.808;2023-08-24T06:42:19;98562.38;;;21.45;96.91
64080;BME280;51042;49.696;10.808;2023-08-24T06:44:44;98577.63;;;21.55;95.13
64080;BME280;51042;49.696;10.808;2023-08-24T06:47:09;98578.41;;;21.56;95.43
64080;BME280;51042;49.696;10.808;2023-08-24T06:49:34;98585.00;;;21.70;94.32
64080;BME280;51042;49.696;10.808;2023-08-24T06:51:59;98590.88;;;21.77;94.19
64080;BME280;51042;49.696;10.808;2023-08-24T06:54:25;98597.78;;;21.98;93.35
64080;BME280;51042;49.696;10.808;2023-08-24T06:56:50;98587.59;;;22.12;91.60
64080;BME280;51042;49.696;10.808;2023-08-24T06:59:15;98588.63;;;22.20;91.76
64080;BME280;51042;49.696;10.808;2023-08-24T07:01:40;98592.41;;;22.12;90.08
64080;BME280;51042;49.696;10.808;2023-08-24T07:04:05;98615.22;;;21.54;93.27
64080;BME280;51042;49.696;10.808;2023-08-24T07:06:32;98637.69;;;21.17;98.35
64080;BME280;51042;49.696;10.808;2023-08-24T07:08:57;98642.41;;;21.06;100.00
64080;BME280;51042;49.696;10.808;2023-08-24T07:11:23;98645.50;;;21.13;99.97
64080;BME280;51042;49.696;10.808;2023-08-24T07:13:48;98646.56;;;21.22;97.86
64080;BME280;51042;49.696;10.808;2023-08-24T07:16:15;98641.44;;;21.09;98.77
64080;BME280;51042;49.696;10.808;2023-08-24T07:18:40;98657.91;;;21.07;99.08
64080;BME280;51042;49.696;10.808;2023-08-24T07:21:05;98654.63;;;21.08;98.17
64080;BME280;51042;49.696;10.808;2023-08-24T07:23:30;98657.25;;;21.29;97.08
64080;BME280;51042;49.696;10.808;2023-08-24T07:25:55;98654.13;;;21.75;93.66
64080;BME280;51042;49.696;10.808;2023-08-24T07:28:21;98654.44;;;22.21;87.95
64080;BME280;51042;49.696;10.808;2023-08-24T07:30:46;98652.41;;;22.72;85.90
64080;BME280;51042;49.696;10.808;2023-08-24T07:33:11;98655.44;;;22.63;82.82
64080;BME280;51042;49.696;10.808;2023-08-24T07:35:36;98662.56;;;22.69;80.65
64080;BME280;51042;49.696;10.808;2023-08-24T07:38:01;98657.47;;;22.68;81.04
64080;BME280;51042;49.696;10.808;2023-08-24T07:40:29;98642.22;;;22.69;82.05
64080;BME280;51042;49.696;10.808;2023-08-24T07:42:54;98641.38;;;23.02;81.41
64080;BME280;51042;49.696;10.808;2023-08-24T07:45:21;98644.09;;;23.30;80.39
64080;BME280;51042;49.696;10.808;2023-08-24T07:47:46;98642.47;;;23.51;79.27
64080;BME280;51042;49.696;10.808;2023-08-24T07:50:11;98642.13;;;23.71;78.87
64080;BME280;51042;49.696;10.808;2023-08-24T07:52:40;98636.03;;;24.02;75.92
64080;BME280;51042;49.696;10.808;2023-08-24T07:55:05;98634.78;;;24.33;74.38
64080;BME280;51042;49.696;10.808;2023-08-24T07:57:32;98633.59;;;24.53;72.30
64080;BME280;51042;49.696;10.808;2023-08-24T07:59:58;98635.41;;;24.21;72.29
64080;BME280;51042;49.696;10.808;2023-08-24T08:02:23;98627.22;;;23.46;75.67
64080;BME280;51042;49.696;10.808;2023-08-24T08:04:48;98627.47;;;23.37;77.23
64080;BME280;51042;49.696;10.808;2023-08-24T08:07:13;98631.94;;;23.68;76.95
64080;BME280;51042;49.696;10.808;2023-08-24T08:09:38;98626.25;;;23.79;75.75
64080;BME280;51042;49.696;10.808;2023-08-24T08:12:04;98630.19;;;23.59;76.21
64080;BME280;51042;49.696;10.808;2023-08-24T08:14:29;98626.28;;;23.74;77.39
64080;BME280;51042;49.696;10.808;2023-08-24T08:16:54;98617.31;;;24.16;76.30
64080;BME280;51042;49.696;10.808;2023-08-24T08:19:20;98614.09;;;24.07;75.62
64080;BME280;51042;49.696;10.808;2023-08-24T08:21:46;98604.81;;;24.23;74.74
64080;BME280;51042;49.696;10.808;2023-08-24T08:24:11;98603.28;;;24.16;77.03
64080;BME280;51042;49.696;10.808;2023-08-24T08:26:37;98609.25;;;24.01;75.72
64080;BME280;51042;49.696;10.808;2023-08-24T08:29:03;98617.00;;;24.25;74.17
64080;BME280;51042;49.696;10.808;2023-08-24T08:31:28;98612.19;;;24.20;74.58
64080;BME280;51042;49.696;10.808;2023-08-24T08:33:53;98614.09;;;24.66;71.79
64080;BME280;51042;49.696;10.808;2023-08-24T08:36:18;98623.66;;;24.76;72.34
64080;BME280;51042;49.696;10.808;2023-08-24T08:38:43;98612.97;;;24.99;71.38
64080;BME280;51042;49.696;10.808;2023-08-24T08:41:08;98619.28;;;25.05;70.98
64080;BME280;51042;49.696;10.808;2023-08-24T08:43:34;98617.81;;;24.99;70.93
64080;BME280;51042;49.696;10.808;2023-08-24T08:45:59;98609.97;;;25.53;69.45
64080;BME280;51042;49.696;10.808;2023-08-24T08:48:25;98592.97;;;25.46;70.22
64080;BME280;51042;49.696;10.808;2023-08-24T08:50:51;98592.66;;;25.49;69.86
64080;BME280;51042;49.696;10.808;2023-08-24T08:53:16;98576.59;;;25.82;69.51
64080;BME280;51042;49.696;10.808;2023-08-24T08:55:42;98566.66;;;25.81;70.25
64080;BME280;51042;49.696;10.808;2023-08-24T08:58:08;98550.44;;;25.87;68.55
64080;BME280;51042;49.696;10.808;2023-08-24T09:00:33;98525.91;;;25.37;67.22
64080;BME280;51042;49.696;10.808;2023-08-24T09:02:58;98506.22;;;24.80;69.59
64080;BME280;51042;49.696;10.808;2023-08-24T09:05:24;98522.63;;;24.52;72.17
64080;BME280;51042;49.696;10.808;2023-08-24T09:07:51;98529.34;;;24.44;73.67
64080;BME280;51042;49.696;10.808;2023-08-24T09:10:18;98539.22;;;24.50;72.87
64080;BME280;51042;49.696;10.808;2023-08-24T09:12:43;98547.94;;;24.95;71.92
64080;BME280;51042;49.696;10.808;2023-08-24T09:15:08;98549.00;;;25.30;69.77
64080;BME280;51042;49.696;10.808;2023-08-24T09:17:34;98551.78;;;25.99;68.81
64080;BME280;51042;49.696;10.808;2023-08-24T09:19:59;98552.00;;;26.01;65.81
64080;BME280;51042;49.696;10.808;2023-08-24T09:22:25;98555.66;;;25.64;66.75
64080;BME280;51042;49.696;10.808;2023-08-24T09:24:50;98550.72;;;25.70;65.05
64080;BME280;51042;49.696;10.808;2023-08-24T09:27:16;98539.41;;;26.21;64.08
64080;BME280;51042;49.696;10.808;2023-08-24T09:29:47;98535.31;;;26.35;60.74
64080;BME280;51042;49.696;10.808;2023-08-24T09:32:13;98536.19;;;26.30;63.35
64080;BME280;51042;49.696;10.808;2023-08-24T09:34:38;98528.41;;;26.49;61.42
64080;BME280;51042;49.696;10.808;2023-08-24T09:37:03;98534.34;;;26.85;57.42
64080;BME280;51042;49.696;10.808;2023-08-24T09:39:29;98546.81;;;26.76;59.08
64080;BME280;51042;49.696;10.808;2023-08-24T09:41:55;98542.25;;;26.87;59.06
64080;BME280;51042;49.696;10.808;2023-08-24T09:44:24;98549.03;;;27.31;58.50
64080;BME280;51042;49.696;10.808;2023-08-24T09:46:51;98543.75;;;27.61;57.57
64080;BME280;51042;49.696;10.808;2023-08-24T09:49:17;98544.53;;;28.24;57.55
64080;BME280;51042;49.696;10.808;2023-08-24T09:51:44;98534.38;;;28.77;55.87
64080;BME280;51042;49.696;10.808;2023-08-24T09:54:09;98521.13;;;29.08;53.37
64080;BME280;51042;49.696;10.808;2023-08-24T09:56:39;98517.09;;;28.60;53.76
64080;BME280;51042;49.696;10.808;2023-08-24T09:59:12;98502.88;;;28.73;54.73
64080;BME280;51042;49.696;10.808;2023-08-24T10:01:38;98494.91;;;28.64;52.96
64080;BME280;51042;49.696;10.808;2023-08-24T10:04:05;98494.41;;;27.96;56.33
64080;BME280;51042;49.696;10.808;2023-08-24T10:06:32;98485.19;;;27.95;55.93
64080;BME280;51042;49.696;10.808;2023-08-24T10:08:58;98491.59;;;27.96;55.27
64080;BME280;51042;49.696;10.808;2023-08-24T10:11:26;98479.00;;;27.97;55.06
64080;BME280;51042;49.696;10.808;2023-08-24T10:13:53;98484.09;;;27.98;55.95
64080;BME280;51042;49.696;10.808;2023-08-24T10:16:21;98479.91;;;28.41;54.90
64080;BME280;51042;49.696;10.808;2023-08-24T10:18:48;98477.16;;;28.56;54.73
64080;BME280;51042;49.696;10.808;2023-08-24T10:21:14;98477.03;;;29.05;53.88
64080;BME280;51042;49.696;10.808;2023-08-24T10:23:39;98470.59;;;28.61;55.31
64080;BME280;51042;49.696;10.808;2023-08-24T10:26:07;98473.38;;;28.18;56.08
64080;BME280;51042;49.696;10.808;2023-08-24T10:28:32;98466.63;;;28.57;54.87
64080;BME280;51042;49.696;10.808;2023-08-24T10:30:58;98465.50;;;28.96;54.63
64080;BME280;51042;49.696;10.808;2023-08-24T10:33:24;98468.56;;;29.13;54.98
64080;BME280;51042;49.696;10.808;2023-08-24T10:35:50;98467.34;;;29.44;54.93
64080;BME280;51042;49.696;10.808;2023-08-24T10:38:25;98453.13;;;29.21;54.62
64080;BME280;51042;49.696;10.808;2023-08-24T10:40:51;98450.97;;;30.11;54.45
64080;BME280;51042;49.696;10.808;2023-08-24T10:43:16;98428.69;;;29.77;53.84
64080;BME280;51042;49.696;10.808;2023-08-24T10:45:58;98429.75;;;29.21;54.48
64080;BME280;51042;49.696;10.808;2023-08-24T10:48:24;98408.41;;;28.97;55.91
64080;BME280;51042;49.696;10.808;2023-08-24T10:53:40;98402.50;;;29.54;55.26
64080;BME280;51042;49.696;10.808;2023-08-24T10:56:12;98413.03;;;30.14;54.53
64080;BME280;51042;49.696;10.808;2023-08-24T10:58:37;98413.78;;;30.07;53.01
64080;BME280;51042;49.696;10.808;2023-08-24T11:01:03;98408.06;;;30.30;51.26
64080;BME280;51042;49.696;10.808;2023-08-24T11:03:31;98394.56;;;30.68;49.20
64080;BME280;51042;49.696;10.808;2023-08-24T11:05:57;98386.59;;;31.07;47.53
64080;BME280;51042;49.696;10.808;2023-08-24T11:08:23;98399.56;;;31.17;48.85
64080;BME280;51042;49.696;10.808;2023-08-24T11:11:17;98394.00;;;31.02;48.18
64080;BME280;51042;49.696;10.808;2023-08-24T11:14:04;98389.97;;;30.80;46.42
64080;BME280;51042;49.696;10.808;2023-08-24T11:16:44;98388.72;;;30.59;47.64
64080;BME280;51042;49.696;10.808;2023-08-24T11:19:10;98386.28;;;30.95;46.17
64080;BME280;51042;49.696;10.808;2023-08-24T11:21:36;98380.22;;;30.59;45.54
64080;BME280;51042;49.696;10.808;2023-08-24T11:24:01;98381.34;;;30.63;45.55
64080;BME280;51042;49.696;10.808;2023-08-24T11:26:27;98387.28;;;30.82;45.99
64080;BME280;51042;49.696;10.808;2023-08-24T11:28:53;98381.81;;;30.85;45.33
64080;BME280;51042;49.696;10.808;2023-08-24T11:31:18;98384.31;;;31.38;45.41
64080;BME280;51042;49.696;10.808;2023-08-24T11:33:43;98386.44;;;31.54;45.85
64080;BME280;51042;49.696;10.808;2023-08-24T11:36:09;98383.03;;;31.81;43.95
64080;BME280;51042;49.696;10.808;2023-08-24T11:38:40;98376.97;;;31.10;47.18
64080;BME280;51042;49.696;10.808;2023-08-24T11:43:38;98369.38;;;30.25;47.65
64080;BME280;51042;49.696;10.808;2023-08-24T11:46:03;98371.69;;;30.66;45.83
64080;BME280;51042;49.696;10.808;2023-08-24T11:48:28;98362.13;;;30.47;46.98
64080;BME280;51042;49.696;10.808;2023-08-24T11:50:54;98367.78;;;30.87;45.22
64080;BME280;51042;49.696;10.808;2023-08-24T11:53:20;98364.63;;;31.65;44.52
64080;BME280;51042;49.696;10.808;2023-08-24T11:55:45;98360.19;;;31.04;44.68
64080;BME280;51042;49.696;10.808;2023-08-24T11:58:16;98352.13;;;30.46;45.73
64080;BME280;51042;49.696;10.808;2023-08-24T12:00:42;98355.16;;;31.20;43.83
64080;BME280;51042;49.696;10.808;2023-08-24T12:03:07;98348.03;;;30.31;45.31
64080;BME280;51042;49.696;10.808;2023-08-24T12:05:32;98354.44;;;31.12;45.83
64080;BME280;51042;49.696;10.808;2023-08-24T12:07:58;98341.22;;;31.81;43.87
64080;BME280;51042;49.696;10.808;2023-08-24T12:10:23;98335.50;;;31.64;45.07
64080;BME280;51042;49.696;10.808;2023-08-24T12:12:48;98328.19;;;32.13;43.84
64080;BME280;51042;49.696;10.808;2023-08-24T12:15:17;98323.16;;;31.69;43.94
64080;BME280;51042;49.696;10.808;2023-08-24T12:17:44;98324.31;;;31.66;43.54
64080;BME280;51042;49.696;10.808;2023-08-24T12:20:16;98319.25;;;31.82;45.07
64080;BME280;51042;49.696;10.808;2023-08-24T12:22:42;98311.38;;;32.24;42.80
64080;BME280;51042;49.696;10.808;2023-08-24T12:25:07;98306.97;;;31.79;43.06
64080;BME280;51042;49.696;10.808;2023-08-24T12:27:32;98308.78;;;31.25;44.49
64080;BME280;51042;49.696;10.808;2023-08-24T12:30:01;98306.78;;;31.35;46.93
64080;BME280;51042;49.696;10.808;2023-08-24T12:32:30;98299.38;;;32.16;45.27
64080;BME280;51042;49.696;10.808;2023-08-24T12:35:06;98292.38;;;32.44;43.93
64080;BME280;51042;49.696;10.808;2023-08-24T12:37:31;98297.38;;;31.92;43.22
64080;BME280;51042;49.696;10.808;2023-08-24T12:39:56;98299.78;;;31.78;44.85
64080;BME280;51042;49.696;10.808;2023-08-24T12:42:22;98280.19;;;31.06;43.61
64080;BME280;51042;49.696;10.808;2023-08-24T12:44:47;98279.22;;;30.54;45.26
64080;BME280;51042;49.696;10.808;2023-08-24T12:47:12;98270.78;;;30.38;46.64
64080;BME280;51042;49.696;10.808;2023-08-24T12:49:37;98273.97;;;30.75;46.29